M I D A S
Marine Information and Data Acquisition System
Tripno 1547 of the Zeeleeuw from 2008-03-07 07:16:49 to 2008-03-07 12:44:20
Back to CruiseResearch ActivitiesStationsMapUnderway DataData graphs

EquipmentUnitsComment
TimeDGPSUTC
LatitudeDGPSDM.mWGS84
LongitudeDGPSDM.mWGS84
HeadingGyrodeg 
SOGDGPSknotsSpeed over ground
COGDGPSdegCourse over ground
DepthEcho soundermeters200 kHz
Missing or incorrect values are displayed as -999
Navigation data collected by the RV Zeeleeuw from 2008-03-07 07:19:05 to 2008-03-07 12:52:52
Time Latitude Longitude Heading SOG COG Depth
2008-03-07 07:20:10 51°13.68 2°55.891 107.8 3.9 290 -999
2008-03-07 07:21:10 51°13.689 2°55.8 85.9 3 270 8.2
2008-03-07 07:22:10 51°13.685 2°55.74 67.4 1.3 258 10.1
2008-03-07 07:23:10 51°13.697 2°55.74 20.3 1.8 10 10.8
2008-03-07 07:24:10 51°13.746 2°55.709 326.2 4.7 327 9.8
2008-03-07 07:25:10 51°13.842 2°55.622 333 7.9 333 9.3
2008-03-07 07:26:10 51°13.978 2°55.519 335.3 9.7 335 9.9
2008-03-07 07:27:10 51°14.126 2°55.406 334.9 9.8 333 9.1
2008-03-07 07:28:10 51°14.261 2°55.269 322.4 9.7 320 9.8
2008-03-07 07:29:10 51°14.37 2°55.068 307.4 10.5 306 9.4
2008-03-07 07:30:10 51°14.486 2°54.83 314.4 12 314 9.4
2008-03-07 07:31:10 51°14.654 2°54.663 344 11.9 346 8.4
2008-03-07 07:32:10 51°14.849 2°54.673 8.8 11.8 6 7.9
2008-03-07 07:33:10 51°15.041 2°54.705 8.7 11.4 6 7.3
2008-03-07 07:34:10 51°15.228 2°54.729 7.7 11.4 4 6.9
2008-03-07 07:35:10 51°15.417 2°54.769 12.1 11.6 10 7.5
2008-03-07 07:36:10 51°15.607 2°54.824 15.2 11.5 14 8.1
2008-03-07 07:37:10 51°15.783 2°54.933 26.5 11.3 30 8.4
2008-03-07 07:38:10 51°15.897 2°55.163 61.3 11.3 64 8.7
2008-03-07 07:39:10 51°15.986 2°55.427 61 11.3 60 8.6
2008-03-07 07:40:10 51°16.079 2°55.687 62.2 11.3 65 8.6
2008-03-07 07:41:10 51°16.161 2°55.956 62.3 11.2 67 8.5
2008-03-07 07:42:10 51°16.25 2°56.219 61.3 11.3 60 8.5
2008-03-07 07:43:10 51°16.338 2°56.484 62.5 11.3 63 8.5
2008-03-07 07:44:10 51°16.427 2°56.749 62 11.5 62 8.5
2008-03-07 07:45:10 51°16.514 2°57.017 60.9 11.2 58 8.5
2008-03-07 07:46:10 51°16.605 2°57.281 60.1 11.4 60 8.5
2008-03-07 07:47:10 51°16.694 2°57.548 62.3 11.4 64 8.5
2008-03-07 07:48:10 51°16.787 2°57.813 60.2 11.5 64 8.4
2008-03-07 07:49:10 51°16.875 2°58.082 62.1 11.4 63 8.3
2008-03-07 07:50:10 51°16.964 2°58.352 61.8 11.5 64 8.2
2008-03-07 07:51:10 51°17.059 2°58.616 60 11.4 62 8.2
2008-03-07 07:52:10 51°17.147 2°58.885 61.9 11.6 62 8.2
2008-03-07 07:53:10 51°17.238 2°59.154 61 11.5 61 8.3
2008-03-07 07:54:10 51°17.327 2°59.412 60.8 10.4 60 8.4
2008-03-07 07:55:10 51°17.406 2°59.637 61.3 8.8 61 8.4
2008-03-07 07:56:10 51°17.474 2°59.832 60.9 8.2 59 8.4
2008-03-07 07:57:10 51°17.539 3°0.024 61.4 8.2 60 8.4
2008-03-07 07:58:10 51°17.605 3°0.216 62.3 8.3 61 8.4
2008-03-07 07:59:10 51°17.671 3°0.409 61.6 8.3 62 8.2
2008-03-07 08:00:10 51°17.737 3°0.602 61.5 8.2 61 8.3
2008-03-07 08:01:10 51°17.803 3°0.793 61.6 8.2 60 8.2
2008-03-07 08:02:10 51°17.862 3°0.971 61.9 7.1 64 8.3
2008-03-07 08:03:10 51°17.916 3°1.131 62.1 6.8 63 8.3
2008-03-07 08:04:10 51°17.968 3°1.289 61.6 6.7 65 7.8
2008-03-07 08:05:10 51°18.02 3°1.445 60.9 6.7 63 8.5
2008-03-07 08:06:10 51°18.073 3°1.601 61.6 6.7 63 8.4
2008-03-07 08:07:10 51°18.117 3°1.741 64.3 4.7 65 8.3
2008-03-07 08:08:10 51°18.143 3°1.833 63.9 3.2 65 8.2
2008-03-07 08:09:10 51°18.164 3°1.901 63.6 2.6 66 8.2
2008-03-07 08:10:10 51°18.183 3°1.96 62.3 2.7 62 8.3
2008-03-07 08:11:10 51°18.208 3°2.031 60.9 3.3 61 8.4
2008-03-07 08:12:10 51°18.237 3°2.112 60.9 3.6 60 8.3
2008-03-07 08:13:10 51°18.268 3°2.198 60 4.3 59 8.2
2008-03-07 08:14:10 51°18.321 3°2.342 59.3 7.4 60 8.1
2008-03-07 08:15:10 51°18.383 3°2.523 66.2 7.9 69 8
2008-03-07 08:16:10 51°18.426 3°2.723 70.2 7.8 72 7.9
2008-03-07 08:17:10 51°18.456 3°2.922 73.9 7.7 78 7.9
2008-03-07 08:18:10 51°18.497 3°3.116 66.7 7.7 68 7.9
2008-03-07 08:19:10 51°18.547 3°3.305 67 7.6 67 8
2008-03-07 08:20:10 51°18.595 3°3.492 66.9 7.7 68 8.1
2008-03-07 08:21:10 51°18.627 3°3.666 83.1 5.6 95 8.1
2008-03-07 08:22:10 51°18.605 3°3.789 97.9 3.7 105 8
2008-03-07 08:23:10 51°18.591 3°3.822 129.6 0.4 240 8
2008-03-07 08:24:10 51°18.59 3°3.812 129.7 0.4 262 8
2008-03-07 08:25:10 51°18.589 3°3.801 122.1 0.4 266 8
2008-03-07 08:26:10 51°18.589 3°3.789 114 0.4 273 8.1
2008-03-07 08:27:10 51°18.59 3°3.777 107 0.5 274 8.1
2008-03-07 08:28:10 51°18.591 3°3.765 103.5 0.5 264 8
2008-03-07 08:29:10 51°18.591 3°3.752 103.2 0.5 270 8.1
2008-03-07 08:30:10 51°18.591 3°3.741 103.1 0.4 267 8
2008-03-07 08:31:10 51°18.59 3°3.731 106.7 0.3 258 8.1
2008-03-07 08:32:10 51°18.589 3°3.724 110.2 0.3 249 8.1
2008-03-07 08:33:10 51°18.588 3°3.717 112.4 0.3 249 8.2
2008-03-07 08:34:10 51°18.587 3°3.71 114.8 0.3 258 8.2
2008-03-07 08:35:10 51°18.585 3°3.704 116.6 0.3 232 8.2
2008-03-07 08:36:10 51°18.582 3°3.698 120.6 0.2 242 8.2
2008-03-07 08:37:10 51°18.581 3°3.691 121.4 0.2 247 8.3
2008-03-07 08:38:10 51°18.579 3°3.684 122.3 0.2 270 8.3
2008-03-07 08:39:10 51°18.577 3°3.679 123.3 0.1 259 8.3
2008-03-07 08:40:10 51°18.577 3°3.673 121.8 0.2 254 8.2
2008-03-07 08:41:10 51°18.576 3°3.669 121.4 0.1 264 8.2
2008-03-07 08:42:10 51°18.576 3°3.666 121.8 0.2 273 8.3
2008-03-07 08:43:10 51°18.575 3°3.661 121.3 0.2 259 8.2
2008-03-07 08:44:10 51°18.576 3°3.657 120.4 0.1 282 8.2
2008-03-07 08:45:10 51°18.577 3°3.653 118.7 0.2 277 8.2
2008-03-07 08:46:10 51°18.578 3°3.649 116.4 0.1 318 8.3
2008-03-07 08:47:10 51°18.577 3°3.657 102 0.6 106 8.2
2008-03-07 08:48:10 51°18.573 3°3.68 94.7 1 102 8.3
2008-03-07 08:49:10 51°18.573 3°3.708 81.1 1 87 8.2
2008-03-07 08:50:10 51°18.572 3°3.731 89.4 0.7 99 8.4
2008-03-07 08:51:10 51°18.57 3°3.745 98.4 0.4 120 8.3
2008-03-07 08:52:10 51°18.567 3°3.753 103.7 0.2 134 8.3
2008-03-07 08:53:10 51°18.564 3°3.754 111.1 0.2 188 8.3
2008-03-07 08:54:10 51°18.56 3°3.753 120.4 0.3 206 8.3
2008-03-07 08:55:10 51°18.557 3°3.75 129.3 0.2 215 8.3
2008-03-07 08:56:10 51°18.556 3°3.746 130 0.2 283 8.4
2008-03-07 08:57:10 51°18.558 3°3.74 123.6 0.3 317 8.4
2008-03-07 08:58:10 51°18.561 3°3.735 113.7 0.2 27 8.4
2008-03-07 08:59:10 51°18.567 3°3.778 65.1 2.7 59 8.3
2008-03-07 09:00:10 51°18.614 3°3.793 353.3 3.5 336 8.2
2008-03-07 09:01:10 51°18.646 3°3.712 284.4 4.4 276 8.7
2008-03-07 09:02:10 51°18.649 3°3.562 268.5 7 266 8.5
2008-03-07 09:03:10 51°18.627 3°3.354 256.4 8.4 256 8.2
2008-03-07 09:04:10 51°18.585 3°3.138 251.8 8.7 252 8.4
2008-03-07 09:05:10 51°18.531 3°2.923 247.4 8.7 248 8.5
2008-03-07 09:06:10 51°18.477 3°2.709 247.4 8.7 248 8.5
2008-03-07 09:07:10 51°18.425 3°2.493 247.3 8.7 248 8.5
2008-03-07 09:08:10 51°18.373 3°2.277 247.7 8.7 248 8.3
2008-03-07 09:09:10 51°18.321 3°2.061 248 8.7 250 8.5
2008-03-07 09:10:10 51°18.269 3°1.847 248 8.6 248 8.5
2008-03-07 09:11:10 51°18.208 3°1.641 243.8 8.5 246 8.7
2008-03-07 09:12:10 51°18.149 3°1.437 244 8.4 245 8.5
2008-03-07 09:13:10 51°18.09 3°1.235 243.9 8.5 245 8.5
2008-03-07 09:14:10 51°18.03 3°1.029 244.1 8.6 246 8.6
2008-03-07 09:15:10 51°17.97 3°0.825 243.9 8.4 245 8.2
2008-03-07 09:16:10 51°17.911 3°0.619 244.2 8.5 245 8.3
2008-03-07 09:17:10 51°17.852 3°0.412 244.2 9 244 8.3
2008-03-07 09:18:10 51°17.785 3°0.188 244.5 9.5 245 8.3
2008-03-07 09:19:10 51°17.717 2°59.96 244.1 9.5 244 8.7
2008-03-07 09:20:10 51°17.65 2°59.73 244.3 9.5 245 8.4
2008-03-07 09:21:10 51°17.583 2°59.501 244.1 9.5 246 8.4
2008-03-07 09:22:10 51°17.516 2°59.275 244 9.4 244 8.5
2008-03-07 09:23:10 51°17.45 2°59.049 244.2 9.4 245 8.6
2008-03-07 09:24:10 51°17.383 2°58.823 244.5 9.4 244 8.5
2008-03-07 09:25:10 51°17.316 2°58.599 244 9.4 244 8.7
2008-03-07 09:26:10 51°17.249 2°58.374 244.1 9.4 245 8.7
2008-03-07 09:27:10 51°17.184 2°58.149 245.1 9.4 251 8.6
2008-03-07 09:28:10 51°17.143 2°57.884 256.7 11.2 257 8.3
2008-03-07 09:29:10 51°17.098 2°57.578 258.8 12.1 259 8.6
2008-03-07 09:30:10 51°17.071 2°57.26 265 12.2 266 9
2008-03-07 09:31:10 51°17.06 2°56.937 267.7 12.3 265 9.7
2008-03-07 09:32:10 51°17.043 2°56.613 266.3 12.3 265 9.9
2008-03-07 09:33:10 51°17.023 2°56.29 265.5 12.3 264 9.7
2008-03-07 09:34:10 51°17.004 2°55.965 265.5 12.3 264 10.2
2008-03-07 09:35:10 51°16.985 2°55.64 265.7 12.3 265 10.5
2008-03-07 09:36:10 51°16.966 2°55.315 265.5 12.3 265 10.8
2008-03-07 09:37:10 51°16.948 2°54.991 265.2 12.2 265 10.7
2008-03-07 09:38:10 51°16.929 2°54.668 265.7 12.3 265 11.2
2008-03-07 09:39:10 51°16.91 2°54.343 265.2 12.3 265 11.1
2008-03-07 09:40:10 51°16.892 2°54.018 265.4 12.3 265 11.2
2008-03-07 09:41:10 51°16.872 2°53.693 264.9 12.3 265 11.3
2008-03-07 09:42:10 51°16.885 2°53.37 277.6 12.3 277 10.4
2008-03-07 09:43:10 51°16.926 2°53.057 286.6 12 287 8.6
2008-03-07 09:44:10 51°17.036 2°52.79 315.6 12 313 10
2008-03-07 09:45:10 51°17.21 2°52.651 347.9 11.9 350 10
2008-03-07 09:46:10 51°17.405 2°52.58 348.1 12 346 10.5
2008-03-07 09:47:10 51°17.6 2°52.512 349.7 12 347 10.8
2008-03-07 09:48:10 51°17.797 2°52.458 349.9 11.9 346 10.8
2008-03-07 09:49:10 51°17.99 2°52.386 348.1 12.1 345 11.2
2008-03-07 09:50:10 51°18.185 2°52.317 351.4 11.9 348 11.3
2008-03-07 09:51:10 51°18.379 2°52.258 350.5 11.9 349 11.9
2008-03-07 09:52:10 51°18.575 2°52.202 351.9 12 347 12.4
2008-03-07 09:53:10 51°18.771 2°52.15 355 11.8 352 13.3
2008-03-07 09:54:10 51°18.967 2°52.12 358.6 12 -999 14.3
2008-03-07 09:55:10 51°19.13 2°52.11 352.2 7.6 351 15.3
2008-03-07 09:56:10 51°19.221 2°52.142 26.6 4.5 29 15.8
2008-03-07 09:57:10 51°19.264 2°52.191 46.9 1.2 59 15.8
2008-03-07 09:58:10 51°19.267 2°52.198 82.5 0.4 51 15.8
2008-03-07 09:59:10 51°19.27 2°52.216 100.1 1 86 15.9
2008-03-07 10:00:10 51°19.269 2°52.249 94.1 1.5 87 15.9
2008-03-07 10:01:10 51°19.273 2°52.292 82.5 1.7 79 15.8
2008-03-07 10:02:10 51°19.277 2°52.332 87.6 1.4 84 15.7
2008-03-07 10:03:10 51°19.278 2°52.365 99.3 1.2 93 15.6
2008-03-07 10:04:10 51°19.275 2°52.393 117 0.9 104 15.7
2008-03-07 10:05:10 51°19.272 2°52.414 124.2 0.8 94 15.6
2008-03-07 10:06:10 51°19.272 2°52.434 129.8 0.8 85 15.5
2008-03-07 10:07:10 51°19.264 2°52.476 107.3 2.7 102 15.4
2008-03-07 10:08:10 51°19.287 2°52.553 34.9 3.9 29 15.2
2008-03-07 10:09:10 51°19.342 2°52.528 310.5 3.6 309 15.6
2008-03-07 10:10:10 51°19.346 2°52.436 255.7 4 257 16.1
2008-03-07 10:11:10 51°19.326 2°52.317 251.8 5 252 16.2
2008-03-07 10:12:10 51°19.298 2°52.211 243.8 2.8 244 16.3
2008-03-07 10:13:10 51°19.295 2°52.2 250.3 0.8 55 16.4
2008-03-07 10:14:10 51°19.304 2°52.222 277.9 1 71 16.4
2008-03-07 10:15:10 51°19.311 2°52.247 303.3 0.9 70 16.5
2008-03-07 10:16:10 51°19.316 2°52.272 322.6 1 70 16.3
2008-03-07 10:17:10 51°19.322 2°52.299 332.6 1.2 72 16.5
2008-03-07 10:18:10 51°19.328 2°52.325 336.9 0.9 70 16.5
2008-03-07 10:19:10 51°19.336 2°52.353 334.2 1.1 67 16.3
2008-03-07 10:20:10 51°19.343 2°52.379 330.9 1 68 16.6
2008-03-07 10:21:10 51°19.352 2°52.406 329.2 1.1 60 16.1
2008-03-07 10:22:10 51°19.361 2°52.435 328 1.3 63 16.3
2008-03-07 10:23:11 51°19.37 2°52.463 327.6 1.1 63 16.3
2008-03-07 10:24:10 51°19.379 2°52.491 320.6 1.2 59 16.4
2008-03-07 10:25:10 51°19.39 2°52.52 318.6 1.3 63 16.6
2008-03-07 10:26:10 51°19.401 2°52.55 321.2 1.4 60 16.4
2008-03-07 10:27:10 51°19.412 2°52.584 327.2 1.4 63 16.6
2008-03-07 10:28:10 51°19.423 2°52.618 324.4 1.4 64 16.3
2008-03-07 10:29:10 51°19.435 2°52.652 320.8 1.4 59 16.4
2008-03-07 10:30:11 51°19.452 2°52.678 310.2 1.5 1 16.4
2008-03-07 10:31:10 51°19.471 2°52.654 267.8 1.6 287 16.7
2008-03-07 10:32:11 51°19.455 2°52.606 227.3 3 221 16.7
2008-03-07 10:33:10 51°19.416 2°52.56 223 2.9 215 16.5
2008-03-07 10:34:10 51°19.382 2°52.512 230.1 2.9 228 16.7
2008-03-07 10:35:10 51°19.345 2°52.423 239.1 4.6 239 16.8
2008-03-07 10:36:10 51°19.305 2°52.308 241.5 4.8 242 16.8
2008-03-07 10:37:10 51°19.281 2°52.244 236.2 1.5 236 17.1
2008-03-07 10:38:10 51°19.276 2°52.229 240.3 0.2 318 17.1
2008-03-07 10:39:11 51°19.285 2°52.239 248.3 1 45 17.1
2008-03-07 10:40:10 51°19.3 2°52.257 263.9 1.3 31 17.2
2008-03-07 10:41:11 51°19.321 2°52.272 274.5 1.4 20 17.2
2008-03-07 10:42:10 51°19.34 2°52.283 269.5 1.1 12 17.3
2008-03-07 10:43:10 51°19.354 2°52.287 254.4 0.7 11 17.4
2008-03-07 10:44:10 51°19.361 2°52.286 242.8 0.3 297 17.4
2008-03-07 10:45:10 51°19.358 2°52.271 240.7 0.9 249 17.5
2008-03-07 10:46:11 51°19.356 2°52.257 244.5 0.3 295 17.5
2008-03-07 10:47:10 51°19.363 2°52.254 249.6 0.6 9 17.5
2008-03-07 10:48:11 51°19.37 2°52.257 239.5 0.3 29 17.4
2008-03-07 10:49:10 51°19.369 2°52.266 223.5 0.5 150 17.6
2008-03-07 10:50:11 51°19.357 2°52.271 223 0.9 179 17.6
2008-03-07 10:51:10 51°19.34 2°52.273 216.7 1.3 155 17.2
2008-03-07 10:52:10 51°19.323 2°52.282 219.7 0.9 168 17.5
2008-03-07 10:53:10 51°19.315 2°52.284 234.3 0.2 155 17.5
2008-03-07 10:54:10 51°19.317 2°52.287 241 0.2 328 17.6
2008-03-07 10:55:11 51°19.321 2°52.284 242.4 0.3 358 17.6
2008-03-07 10:56:10 51°19.324 2°52.289 234.6 0.3 63 17.6
2008-03-07 10:57:11 51°19.325 2°52.298 227.1 0.4 80 17.6
2008-03-07 10:58:10 51°19.322 2°52.316 217 0.8 102 17.5
2008-03-07 10:59:11 51°19.315 2°52.336 219 0.6 127 17.5
2008-03-07 11:00:10 51°19.314 2°52.347 237.1 0.3 65 17.5
2008-03-07 11:01:10 51°19.319 2°52.351 242.5 0.3 40 17.4
2008-03-07 11:02:10 51°19.323 2°52.351 235.9 0.1 260 17.4
2008-03-07 11:03:10 51°19.319 2°52.347 236.8 0.5 223 17.5
2008-03-07 11:04:11 51°19.324 2°52.332 252.1 0.7 306 17.9
2008-03-07 11:05:10 51°19.329 2°52.315 245.9 0.8 286 17.8
2008-03-07 11:06:11 51°19.331 2°52.295 244.1 0.7 275 17.7
2008-03-07 11:07:10 51°19.33 2°52.275 239.7 0.7 252 17.9
2008-03-07 11:08:11 51°19.325 2°52.26 234.4 0.6 220 17.8
2008-03-07 11:09:10 51°19.324 2°52.256 242.1 0.4 10 17.9
2008-03-07 11:10:10 51°19.337 2°52.264 247 0.8 39 17.9
2008-03-07 11:11:11 51°19.348 2°52.276 238.6 0.7 38 17.9
2008-03-07 11:12:10 51°19.349 2°52.269 236.7 0.8 258 18
2008-03-07 11:13:11 51°19.344 2°52.243 237.2 1.2 239 18
2008-03-07 11:14:10 51°19.328 2°52.22 229.8 1.1 210 18.1
2008-03-07 11:15:11 51°19.327 2°52.23 240.3 1.4 55 18.1
2008-03-07 11:16:10 51°19.349 2°52.273 270.9 2.6 50 18
2008-03-07 11:17:11 51°19.377 2°52.332 302.6 2.8 53 18
2008-03-07 11:18:10 51°19.403 2°52.394 324 2.9 57 18
2008-03-07 11:19:10 51°19.429 2°52.457 335.4 2.8 56 18
2008-03-07 11:20:11 51°19.455 2°52.523 338.8 2.9 56 17.9
2008-03-07 11:21:10 51°19.482 2°52.587 341.4 2.9 55 17.9
2008-03-07 11:22:11 51°19.51 2°52.652 338.6 2.9 57 17.9
2008-03-07 11:23:10 51°19.546 2°52.705 323.5 3.1 21 18
2008-03-07 11:24:11 51°19.583 2°52.69 261 1.7 284 18.2
2008-03-07 11:25:10 51°19.56 2°52.637 240.1 3 256 18.1
2008-03-07 11:26:11 51°19.564 2°52.568 253 2.7 278 18.2
2008-03-07 11:27:11 51°19.587 2°52.488 272.1 3.6 304 18.6
2008-03-07 11:28:10 51°19.629 2°52.418 287.7 3.6 327 18.4
2008-03-07 11:29:11 51°19.685 2°52.373 301 3.8 341 18.7
2008-03-07 11:30:10 51°19.727 2°52.339 271.9 1.8 325 18.8
2008-03-07 11:31:11 51°19.731 2°52.275 252.2 3.3 265 18.9
2008-03-07 11:32:10 51°19.704 2°52.201 233 2.9 229 18.8
2008-03-07 11:33:11 51°19.676 2°52.148 234.7 2.5 232 19.1
2008-03-07 11:34:11 51°19.647 2°52.093 233.8 3.1 231 19
2008-03-07 11:35:11 51°19.616 2°52.029 234.8 3.3 233 18.8
2008-03-07 11:36:11 51°19.583 2°51.965 233.2 3 232 18.7
2008-03-07 11:37:11 51°19.554 2°51.903 234.3 3.1 236 18.7
2008-03-07 11:38:11 51°19.522 2°51.837 234 3 235 18.8
2008-03-07 11:39:11 51°19.491 2°51.772 235.1 3.1 238 18.8
2008-03-07 11:40:11 51°19.461 2°51.704 233.9 3.3 233 18.8
2008-03-07 11:41:11 51°19.429 2°51.634 234.9 3.3 235 18.7
2008-03-07 11:42:11 51°19.4 2°51.574 234.2 2.6 233 18.3
2008-03-07 11:43:11 51°19.371 2°51.511 234.3 3.1 231 18.5
2008-03-07 11:44:11 51°19.339 2°51.444 235.1 3.2 235 18.4
2008-03-07 11:45:11 51°19.307 2°51.377 233.2 3 233 18.3
2008-03-07 11:46:11 51°19.277 2°51.308 236.8 3.3 239 18.3
2008-03-07 11:47:11 51°19.249 2°51.239 237.1 2.8 235 18.2
2008-03-07 11:48:11 51°19.224 2°51.182 236.3 2.5 236 18.3
2008-03-07 11:49:11 51°19.204 2°51.13 236 2.3 236 18.1
2008-03-07 11:50:11 51°19.18 2°51.073 235.5 2.6 233 18.3
2008-03-07 11:51:11 51°19.155 2°51.017 235.8 2.4 225 18.1
2008-03-07 11:52:11 51°19.13 2°50.955 237.2 2.9 238 18
2008-03-07 11:53:11 51°19.104 2°50.89 237.8 2.9 234 17.8
2008-03-07 11:54:11 51°19.077 2°50.829 235 2.9 232 17.7
2008-03-07 11:55:11 51°19.044 2°50.771 231.5 3.1 225 17.9
2008-03-07 11:56:11 51°19.01 2°50.713 230.1 3 225 17.7
2008-03-07 11:57:11 51°18.974 2°50.651 231.2 3.3 229 17.6
2008-03-07 11:58:11 51°18.936 2°50.589 228.8 3.3 229 17.5
2008-03-07 11:59:12 51°18.903 2°50.528 233.6 2.7 231 17.6
2008-03-07 12:00:11 51°18.878 2°50.492 229 1.6 219 17.5
2008-03-07 12:01:11 51°18.869 2°50.462 251.6 1.4 283 17.3
2008-03-07 12:02:11 51°18.9 2°50.428 306.2 3.6 355 17.5
2008-03-07 12:03:11 51°18.964 2°50.454 358.8 3.7 25 17.1
2008-03-07 12:04:11 51°19.01 2°50.491 341.7 2.7 27 16.8
2008-03-07 12:05:11 51°19.046 2°50.529 336 2.7 36 17.3
2008-03-07 12:06:11 51°19.078 2°50.568 325.7 2.4 41 17.2
2008-03-07 12:07:11 51°19.106 2°50.61 320.6 2.4 43 17.3
2008-03-07 12:08:11 51°19.132 2°50.657 325.4 2.4 53 17.5
2008-03-07 12:09:11 51°19.16 2°50.703 333.4 2.5 29 17.3
2008-03-07 12:10:11 51°19.222 2°50.75 21 6.1 39 17.3
2008-03-07 12:11:11 51°19.248 2°50.895 118.4 5.3 107 17.5
2008-03-07 12:12:11 51°19.189 2°50.973 182.9 5.5 169 18.1
2008-03-07 12:13:11 51°19.079 2°51.005 183.2 7.5 169 18
2008-03-07 12:14:11 51°18.952 2°51.061 175.6 8.4 164 17.9
2008-03-07 12:15:11 51°18.816 2°51.141 171.2 8.8 159 17.4
2008-03-07 12:16:11 51°18.682 2°51.221 171.4 8.6 158 17.1
2008-03-07 12:17:11 51°18.548 2°51.314 168.1 8.7 155 16.4
2008-03-07 12:18:11 51°18.416 2°51.408 168 8.5 156 16.1
2008-03-07 12:19:11 51°18.283 2°51.501 168.3 8.6 158 15.2
2008-03-07 12:20:11 51°18.15 2°51.591 168 8.8 158 14.4
2008-03-07 12:21:11 51°18.016 2°51.68 169.8 8.6 157 13.8
2008-03-07 12:22:12 51°17.879 2°51.771 166.9 8.9 155 13.3
2008-03-07 12:23:11 51°17.746 2°51.869 165.4 9.1 153 13.5
2008-03-07 12:24:12 51°17.607 2°51.981 165.9 9.4 154 13.5
2008-03-07 12:25:11 51°17.469 2°52.086 165.3 9.3 153 13.5
2008-03-07 12:26:11 51°17.323 2°52.195 164.4 10 159 13.4
2008-03-07 12:27:11 51°17.169 2°52.306 164.8 10.4 155 13.3
2008-03-07 12:28:11 51°17.011 2°52.404 169.3 10.3 160 12.7
2008-03-07 12:29:11 51°16.834 2°52.49 172.1 11.7 166 12.9
2008-03-07 12:30:11 51°16.649 2°52.563 171.7 11.5 164 13.9
2008-03-07 12:31:11 51°16.468 2°52.676 165.3 11.6 159 15.2
2008-03-07 12:32:11 51°16.293 2°52.83 160.1 12.1 149 14.7
2008-03-07 12:33:11 51°16.118 2°52.983 158.7 12 152 14.9
2008-03-07 12:34:11 51°15.949 2°53.15 154.7 12.2 147 14.5
2008-03-07 12:35:11 51°15.778 2°53.318 155.7 12.2 148 14.3
2008-03-07 12:36:11 51°15.608 2°53.486 154.4 12.1 148 13.6
2008-03-07 12:37:11 51°15.437 2°53.652 156.8 11.7 148 13.5
2008-03-07 12:38:11 51°15.265 2°53.813 155.2 12.2 148 12.7
2008-03-07 12:39:11 51°15.093 2°53.969 156 11.9 149 12.4
2008-03-07 12:40:11 51°14.922 2°54.129 155.2 11.9 149 12.2
2008-03-07 12:41:11 51°14.763 2°54.332 145.2 12.7 133 12.8
2008-03-07 12:42:12 51°14.62 2°54.586 137.1 12.6 133 12.9
2008-03-07 12:43:11 51°14.479 2°54.825 138 12.6 128 13.6
2008-03-07 12:44:11 51°14.352 2°55.097 129.8 12.3 131 13.8
2008-03-07 12:45:11 51°14.218 2°55.317 137.8 9.9 142 14.3
2008-03-07 12:46:11 51°14.09 2°55.436 150.3 8.2 155 12.5
2008-03-07 12:47:11 51°13.973 2°55.522 153.5 7.4 156 14.2
2008-03-07 12:48:11 51°13.865 2°55.604 153.2 6.8 154 14
2008-03-07 12:49:12 51°13.773 2°55.686 140.1 5.8 143 -999
2008-03-07 12:50:12 51°13.713 2°55.781 127.9 4.7 130 -999
2008-03-07 12:51:12 51°13.679 2°55.879 108.1 3.7 110 -999
2008-03-07 12:52:12 51°13.667 2°55.943 110.6 1.4 106 -999